Oriental Acacia — ZGBL2 — position and weather

sailwx.info

Track history (hours):
 
Tides and Currents Weather Stations Pressure Air Temp Water Temp Dewpoint Dewpoint Depression Visibility Wind Speed Wind Dir Waves Ship Positions

Oriental Acacia

Last reported at 2017-Sep-21 04:41 UTC. Time now 2017-Sep-21 05:29 UTC.
Position N 36°11' W 001°51'.

Length 124 m; draft 5.2 m.

Type: Tanker. MMSI: 319014800.

Date/timePositionNaut miles runAvg speedWind from/ knotsBaromVisibWave heightAir tempDewpointWater temp
2017-Sep-21 04:41N 36°11' W 001°51'413.9
2017-Sep-21 04:25N 36°11' W 001°47'713.7
2017-Sep-21 03:55N 36°11' W 001°38'613.9
2017-Sep-21 03:30N 36°11' W 001°31'713.9
2017-Sep-21 03:00N 36°11' W 001°23'714.0
2017-Sep-21 02:30N 36°11' W 001°14'713.9
2017-Sep-21 02:00N 36°12' W 001°05'714.0
2017-Sep-21 01:30N 36°12' W 000°57'713.8
2017-Sep-21 01:00N 36°12' W 000°48'713.8
2017-Sep-21 00:30N 36°12' W 000°39'714.1
2017-Sep-21 00:00N 36°15' W 000°31'714.3
2017-Sep-20 23:30N 36°17' W 000°23'714.4
2017-Sep-20 23:00N 36°19' W 000°14'814.5
2017-Sep-20 22:28N 36°21' W 000°05'714.3
2017-Sep-20 21:59N 36°24' E 000°03'714.5
2017-Sep-20 21:30N 36°26' E 000°12'714.6
2017-Sep-20 21:00N 36°28' E 000°20'714.4
2017-Sep-20 20:30N 36°30' E 000°28'714.4
2017-Sep-20 19:59N 36°33' E 000°37'1814.1
2017-Sep-20 18:42N 36°39' E 000°59'314.3
2017-Sep-20 18:30N 36°40' E 001°02'4014.9
2017-Sep-20 15:50N 36°52' E 001°49'50813.6
2017-Sep-19 02:23N 36°59' E 012°24'514.0
2017-Sep-19 02:00N 36°58' E 012°31'1114.2
2017-Sep-19 01:14N 36°55' E 012°44'314.2
2017-Sep-19 01:00N 36°53' E 012°47'714.4
2017-Sep-19 00:30N 36°51' E 012°56'714.6
2017-Sep-19 00:00N 36°49' E 013°05'714.6
2017-Sep-18 23:30N 36°47' E 013°13'714.6
2017-Sep-18 23:00N 36°45' E 013°22'714.2
2017-Sep-18 22:30N 36°42' E 013°30'714.3
2017-Sep-18 22:00N 36°40' E 013°39'714.2
2017-Sep-18 21:30N 36°38' E 013°47'714.2
2017-Sep-18 20:59N 36°36' E 013°56'1414.1
2017-Sep-18 20:00N 36°31' E 014°12'714.1
2017-Sep-18 19:30N 36°29' E 014°21'714.2
2017-Sep-18 19:00N 36°27' E 014°29'714.4
2017-Sep-18 18:30N 36°27' E 014°38'714.2
2017-Sep-18 18:00N 36°26' E 014°47'714.1
2017-Sep-18 17:30N 36°26' E 014°56'714.0
2017-Sep-18 17:00N 36°25' E 015°04'713.9
2017-Sep-18 16:29N 36°24' E 015°13'714.4
2017-Sep-18 16:00N 36°24' E 015°22'3615.1
2017-Sep-18 13:36N 36°22' E 016°07'30114.6
2017-Sep-17 16:59N 36°04' E 022°19'914.1
2017-Sep-17 16:21N 36°03' E 022°30'514.1
2017-Sep-17 16:00N 36°03' E 022°36'4412.8
2017-Sep-17 12:34N 36°22' E 023°25'714.4
2017-Sep-17 12:06N 36°27' E 023°30'114.6
2017-Sep-17 12:00N 36°28' E 023°31'714.5
2017-Sep-17 11:30N 36°34' E 023°36'714.7
2017-Sep-17 11:01N 36°40' E 023°42'714.4
2017-Sep-17 10:30N 36°48' E 023°42'714.7
2017-Sep-17 10:00N 36°55' E 023°42'714.2
2017-Sep-17 09:30N 37°02' E 023°42'714.5
2017-Sep-17 09:01N 37°09' E 023°42'714.4
2017-Sep-17 08:30N 37°16' E 023°43'714.3
2017-Sep-17 08:00N 37°24' E 023°42'714.5
2017-Sep-17 07:30N 37°31' E 023°43'714.6
2017-Sep-17 07:00N 37°38' E 023°42'714.7
2017-Sep-17 06:31N 37°45' E 023°39'714.5
2017-Sep-17 06:00N 37°52' E 023°36'510.9
2017-Sep-17 05:31N 37°57' E 023°35'0 0.6
2017-Sep-17 04:58N 37°57' E 023°35'0 0.0
2017-Sep-17 04:28N 37°57' E 023°35'0 0.0
2017-Sep-17 03:58N 37°57' E 023°35'0 0.0
2017-Sep-17 03:28N 37°57' E 023°35'0 0.0
2017-Sep-17 02:58N 37°57' E 023°35'0 0.0
2017-Sep-17 02:28N 37°57' E 023°35'0 0.0
2017-Sep-17 01:55N 37°57' E 023°35'0 0.0
2017-Sep-17 01:28N 37°57' E 023°35'0 0.0
2017-Sep-17 00:58N 37°57' E 023°35'0 0.0
2017-Sep-17 00:25N 37°57' E 023°35'0 0.0
2017-Sep-16 23:58N 37°57' E 023°35'0 0.0
2017-Sep-16 23:28N 37°57' E 023°35'0 0.0
2017-Sep-16 22:58N 37°57' E 023°35'0 0.0
2017-Sep-16 22:25N 37°57' E 023°35'0 0.0
2017-Sep-16 21:55N 37°57' E 023°35'0 0.0
2017-Sep-16 21:28N 37°57' E 023°35'0 0.0
2017-Sep-16 20:58N 37°57' E 023°35'0 0.0
2017-Sep-16 20:28N 37°57' E 023°35'0 0.0
2017-Sep-16 19:58N 37°57' E 023°35'0 0.0
2017-Sep-16 19:28N 37°57' E 023°35'0 0.0
2017-Sep-16 18:55N 37°57' E 023°35'0 0.0
2017-Sep-16 18:28N 37°57' E 023°35'0 0.0
2017-Sep-16 17:58N 37°57' E 023°35'0 0.0
2017-Sep-16 17:28N 37°57' E 023°35'0 0.0
2017-Sep-16 16:58N 37°57' E 023°35'0 0.0
2017-Sep-16 16:28N 37°57' E 023°35'0 0.0
2017-Sep-16 15:58N 37°57' E 023°35'0 0.0
2017-Sep-16 15:28N 37°57' E 023°35'0 0.0
2017-Sep-16 14:52N 37°57' E 023°35'0 0.0
2017-Sep-16 14:28N 37°57' E 023°35'0 0.0
2017-Sep-16 13:58N 37°57' E 023°35'0 0.0
2017-Sep-16 13:28N 37°57' E 023°35'0 0.0
2017-Sep-16 12:58N 37°57' E 023°35'0 0.0
2017-Sep-16 12:28N 37°57' E 023°35'0 0.0
2017-Sep-16 11:55N 37°57' E 023°35'0 0.0
2017-Sep-16 11:28N 37°57' E 023°35'0 0.0
2017-Sep-16 10:58N 37°57' E 023°35'0 0.0
2017-Sep-16 10:28N 37°57' E 023°35'0 0.0
2017-Sep-16 09:55N 37°57' E 023°35'0 0.0
2017-Sep-16 09:25N 37°57' E 023°35'0 0.0
2017-Sep-16 08:58N 37°57' E 023°35'0 0.0
2017-Sep-16 08:30N 37°57' E 023°35'2 3.2
2017-Sep-16 08:00N 37°56' E 023°36'1 1.5
2017-Sep-16 07:30N 37°56' E 023°36'3 5.5
2017-Sep-16 07:00N 37°54' E 023°34'2 2.9
2017-Sep-16 06:25N 37°53' E 023°32'0 0.0
2017-Sep-16 05:58N 37°53' E 023°32'0 0.0
2017-Sep-16 05:28N 37°53' E 023°32'0 0.0
2017-Sep-16 04:58N 37°53' E 023°32'0 0.0
2017-Sep-16 04:28N 37°53' E 023°32'0 0.0
2017-Sep-16 03:58N 37°53' E 023°32'0 0.0
2017-Sep-16 03:28N 37°53' E 023°32'0 0.0
2017-Sep-16 02:55N 37°53' E 023°32'0 0.0
2017-Sep-16 02:28N 37°53' E 023°32'0 0.0
2017-Sep-16 01:58N 37°53' E 023°32'0 0.0
2017-Sep-16 01:28N 37°53' E 023°32'0 0.0
2017-Sep-16 00:58N 37°53' E 023°32'0 0.0
2017-Sep-16 00:28N 37°53' E 023°32'0 0.0
2017-Sep-15 23:58N 37°53' E 023°32'0 0.0
2017-Sep-15 23:28N 37°53' E 023°32'0 0.0
2017-Sep-15 22:58N 37°53' E 023°32'0 0.1
2017-Sep-15 22:28N 37°53' E 023°32'0 0.1
2017-Sep-15 21:58N 37°53' E 023°32'0 0.0
2017-Sep-15 21:25N 37°53' E 023°32'0 0.0
2017-Sep-15 20:58N 37°53' E 023°32'0 0.0
2017-Sep-15 20:28N 37°53' E 023°32'0 0.0
2017-Sep-15 19:58N 37°53' E 023°32'0 0.0
2017-Sep-15 19:28N 37°53' E 023°32'0 0.0
2017-Sep-15 18:52N 37°53' E 023°32'0 0.1
2017-Sep-15 18:28N 37°53' E 023°32'0 0.1
2017-Sep-15 17:58N 37°53' E 023°32'0 0.1
2017-Sep-15 17:28N 37°53' E 023°32'0 0.1
2017-Sep-15 16:58N 37°53' E 023°32'0 0.0
2017-Sep-15 16:25N 37°53' E 023°32'0 0.0
2017-Sep-15 15:58N 37°53' E 023°32'0 0.0
2017-Sep-15 15:28N 37°53' E 023°32'0 0.0
2017-Sep-15 14:58N 37°53' E 023°32'0 0.0
2017-Sep-15 14:28N 37°53' E 023°32'0 0.0
2017-Sep-15 13:58N 37°53' E 023°32'0 0.1
2017-Sep-15 13:28N 37°53' E 023°32'0 0.1
2017-Sep-15 12:58N 37°53' E 023°32'0 0.0
2017-Sep-15 12:28N 37°53' E 023°32'0 0.0
2017-Sep-15 11:58N 37°53' E 023°32'0 0.0
2017-Sep-15 11:25N 37°53' E 023°32'0 0.0
2017-Sep-15 10:58N 37°53' E 023°32'0 0.0
2017-Sep-15 10:28N 37°53' E 023°32'0 0.0
2017-Sep-15 09:58N 37°53' E 023°32'0 0.0
2017-Sep-15 09:25N 37°53' E 023°32'0 0.0
2017-Sep-15 08:58N 37°53' E 023°32'0 0.0
2017-Sep-15 08:28N 37°53' E 023°32'0 0.0
2017-Sep-15 07:58N 37°53' E 023°32'0 0.1
2017-Sep-15 07:28N 37°53' E 023°32'0 0.0
2017-Sep-15 06:58N 37°53' E 023°32'0 0.0
2017-Sep-15 06:28N 37°53' E 023°32'0 0.0
2017-Sep-15 05:58N 37°53' E 023°32'0 0.0
2017-Sep-15 05:28N 37°53' E 023°32'0 0.0
2017-Sep-15 04:55N 37°53' E 023°32'0 0.1
2017-Sep-15 04:28N 37°53' E 023°32'0 0.0
2017-Sep-15 03:58N 37°53' E 023°32'0 0.1
2017-Sep-15 03:28N 37°53' E 023°32'0 0.0
2017-Sep-15 02:58N 37°53' E 023°32'0 0.0
2017-Sep-15 02:28N 37°53' E 023°32'0 0.0
2017-Sep-15 01:58N 37°53' E 023°32'0 0.1
2017-Sep-15 01:28N 37°53' E 023°32'0 0.0
2017-Sep-15 00:58N 37°53' E 023°32'0 0.0
2017-Sep-15 00:28N 37°53' E 023°32'0 0.0
2017-Sep-14 23:58N 37°53' E 023°32'0 0.1
2017-Sep-14 23:28N 37°53' E 023°32'0 0.0
2017-Sep-14 22:58N 37°53' E 023°32'0 0.0
2017-Sep-14 22:28N 37°53' E 023°32'0 0.0
2017-Sep-14 21:58N 37°53' E 023°32'0 0.0
2017-Sep-14 21:28N 37°53' E 023°32'0 0.0
2017-Sep-14 20:58N 37°53' E 023°32'0 0.0
2017-Sep-14 20:28N 37°53' E 023°32'0 0.1
2017-Sep-14 19:59N 37°53' E 023°32'4 8.1
2017-Sep-14 19:31N 37°52' E 023°37'713.6
2017-Sep-14 19:00N 37°46' E 023°42'714.3
2017-Sep-14 18:31N 37°40' E 023°46'713.9
2017-Sep-14 18:01N 37°37' E 023°54'170 5.0
2017-Sep-13 07:58N 39°59' E 025°55'145 8.3
2017-Sep-12 14:31N 40°56' E 028°51'0 5.7
2017-Sep-12 14:30N 40°56' E 028°51'510.0
2017-Sep-12 14:00N 40°56' E 028°57'713.3
2017-Sep-12 13:30N 40°51' E 029°02'714.3
2017-Sep-12 13:01N 40°47' E 029°10'713.6
2017-Sep-12 12:30N 40°45' E 029°19'510.3
2017-Sep-12 12:00N 40°45' E 029°26'  
Track history (hours):
 
Tides and Currents Weather Stations Pressure Air Temp Water Temp Dewpoint Dewpoint Depression Visibility Wind Speed Wind Dir Waves Ship Positions

Oriental Acacia

Last reported at 2017-Sep-21 04:41 UTC. Time now 2017-Sep-21 05:29 UTC.
Position N 36°11' W 001°51'.

Length 124 m; draft 5.2 m.

Type: Tanker. MMSI: 319014800.

Date/timePositionNaut miles runAvg speedWind from/ knotsBaromVisibWave heightAir tempDewpointWater temp
2017-Sep-21 04:41N 36°11' W 001°51'413.9
2017-Sep-21 04:25N 36°11' W 001°47'713.7
2017-Sep-21 03:55N 36°11' W 001°38'613.9
2017-Sep-21 03:30N 36°11' W 001°31'713.9
2017-Sep-21 03:00N 36°11' W 001°23'714.0
2017-Sep-21 02:30N 36°11' W 001°14'713.9
2017-Sep-21 02:00N 36°12' W 001°05'714.0
2017-Sep-21 01:30N 36°12' W 000°57'713.8
2017-Sep-21 01:00N 36°12' W 000°48'713.8
2017-Sep-21 00:30N 36°12' W 000°39'714.1
2017-Sep-21 00:00N 36°15' W 000°31'714.3
2017-Sep-20 23:30N 36°17' W 000°23'714.4
2017-Sep-20 23:00N 36°19' W 000°14'814.5
2017-Sep-20 22:28N 36°21' W 000°05'714.3
2017-Sep-20 21:59N 36°24' E 000°03'714.5
2017-Sep-20 21:30N 36°26' E 000°12'714.6
2017-Sep-20 21:00N 36°28' E 000°20'714.4
2017-Sep-20 20:30N 36°30' E 000°28'714.4
2017-Sep-20 19:59N 36°33' E 000°37'1814.1
2017-Sep-20 18:42N 36°39' E 000°59'314.3
2017-Sep-20 18:30N 36°40' E 001°02'4014.9
2017-Sep-20 15:50N 36°52' E 001°49'50813.6
2017-Sep-19 02:23N 36°59' E 012°24'514.0
2017-Sep-19 02:00N 36°58' E 012°31'1114.2
2017-Sep-19 01:14N 36°55' E 012°44'314.2
2017-Sep-19 01:00N 36°53' E 012°47'714.4
2017-Sep-19 00:30N 36°51' E 012°56'714.6
2017-Sep-19 00:00N 36°49' E 013°05'714.6
2017-Sep-18 23:30N 36°47' E 013°13'714.6
2017-Sep-18 23:00N 36°45' E 013°22'714.2
2017-Sep-18 22:30N 36°42' E 013°30'714.3
2017-Sep-18 22:00N 36°40' E 013°39'714.2
2017-Sep-18 21:30N 36°38' E 013°47'714.2
2017-Sep-18 20:59N 36°36' E 013°56'1414.1
2017-Sep-18 20:00N 36°31' E 014°12'714.1
2017-Sep-18 19:30N 36°29' E 014°21'714.2
2017-Sep-18 19:00N 36°27' E 014°29'714.4
2017-Sep-18 18:30N 36°27' E 014°38'714.2
2017-Sep-18 18:00N 36°26' E 014°47'714.1
2017-Sep-18 17:30N 36°26' E 014°56'714.0
2017-Sep-18 17:00N 36°25' E 015°04'713.9
2017-Sep-18 16:29N 36°24' E 015°13'714.4
2017-Sep-18 16:00N 36°24' E 015°22'3615.1
2017-Sep-18 13:36N 36°22' E 016°07'30114.6
2017-Sep-17 16:59N 36°04' E 022°19'914.1
2017-Sep-17 16:21N 36°03' E 022°30'514.1
2017-Sep-17 16:00N 36°03' E 022°36'4412.8
2017-Sep-17 12:34N 36°22' E 023°25'714.4
2017-Sep-17 12:06N 36°27' E 023°30'114.6
2017-Sep-17 12:00N 36°28' E 023°31'714.5
2017-Sep-17 11:30N 36°34' E 023°36'714.7
2017-Sep-17 11:01N 36°40' E 023°42'714.4
2017-Sep-17 10:30N 36°48' E 023°42'714.7
2017-Sep-17 10:00N 36°55' E 023°42'714.2
2017-Sep-17 09:30N 37°02' E 023°42'714.5
2017-Sep-17 09:01N 37°09' E 023°42'714.4
2017-Sep-17 08:30N 37°16' E 023°43'714.3
2017-Sep-17 08:00N 37°24' E 023°42'714.5
2017-Sep-17 07:30N 37°31' E 023°43'714.6
2017-Sep-17 07:00N 37°38' E 023°42'714.7
2017-Sep-17 06:31N 37°45' E 023°39'714.5
2017-Sep-17 06:00N 37°52' E 023°36'510.9
2017-Sep-17 05:31N 37°57' E 023°35'0 0.6
2017-Sep-17 04:58N 37°57' E 023°35'0 0.0
2017-Sep-17 04:28N 37°57' E 023°35'0 0.0
2017-Sep-17 03:58N 37°57' E 023°35'0 0.0
2017-Sep-17 03:28N 37°57' E 023°35'0 0.0
2017-Sep-17 02:58N 37°57' E 023°35'0 0.0
2017-Sep-17 02:28N 37°57' E 023°35'0 0.0
2017-Sep-17 01:55N 37°57' E 023°35'0 0.0
2017-Sep-17 01:28N 37°57' E 023°35'0 0.0
2017-Sep-17 00:58N 37°57' E 023°35'0 0.0
2017-Sep-17 00:25N 37°57' E 023°35'0 0.0
2017-Sep-16 23:58N 37°57' E 023°35'0 0.0
2017-Sep-16 23:28N 37°57' E 023°35'0 0.0
2017-Sep-16 22:58N 37°57' E 023°35'0 0.0
2017-Sep-16 22:25N 37°57' E 023°35'0 0.0
2017-Sep-16 21:55N 37°57' E 023°35'0 0.0
2017-Sep-16 21:28N 37°57' E 023°35'0 0.0
2017-Sep-16 20:58N 37°57' E 023°35'0 0.0
2017-Sep-16 20:28N 37°57' E 023°35'0 0.0
2017-Sep-16 19:58N 37°57' E 023°35'0 0.0
2017-Sep-16 19:28N 37°57' E 023°35'0 0.0
2017-Sep-16 18:55N 37°57' E 023°35'0 0.0
2017-Sep-16 18:28N 37°57' E 023°35'0 0.0
2017-Sep-16 17:58N 37°57' E 023°35'0 0.0
2017-Sep-16 17:28N 37°57' E 023°35'0 0.0
2017-Sep-16 16:58N 37°57' E 023°35'0 0.0
2017-Sep-16 16:28N 37°57' E 023°35'0 0.0
2017-Sep-16 15:58N 37°57' E 023°35'0 0.0
2017-Sep-16 15:28N 37°57' E 023°35'0 0.0
2017-Sep-16 14:52N 37°57' E 023°35'0 0.0
2017-Sep-16 14:28N 37°57' E 023°35'0 0.0
2017-Sep-16 13:58N 37°57' E 023°35'0 0.0
2017-Sep-16 13:28N 37°57' E 023°35'0 0.0
2017-Sep-16 12:58N 37°57' E 023°35'0 0.0
2017-Sep-16 12:28N 37°57' E 023°35'0 0.0
2017-Sep-16 11:55N 37°57' E 023°35'0 0.0
2017-Sep-16 11:28N 37°57' E 023°35'0 0.0
2017-Sep-16 10:58N 37°57' E 023°35'0 0.0
2017-Sep-16 10:28N 37°57' E 023°35'0 0.0
2017-Sep-16 09:55N 37°57' E 023°35'0 0.0
2017-Sep-16 09:25N 37°57' E 023°35'0 0.0
2017-Sep-16 08:58N 37°57' E 023°35'0 0.0
2017-Sep-16 08:30N 37°57' E 023°35'2 3.2
2017-Sep-16 08:00N 37°56' E 023°36'1 1.5
2017-Sep-16 07:30N 37°56' E 023°36'3 5.5
2017-Sep-16 07:00N 37°54' E 023°34'2 2.9
2017-Sep-16 06:25N 37°53' E 023°32'0 0.0
2017-Sep-16 05:58N 37°53' E 023°32'0 0.0
2017-Sep-16 05:28N 37°53' E 023°32'0 0.0
2017-Sep-16 04:58N 37°53' E 023°32'0 0.0
2017-Sep-16 04:28N 37°53' E 023°32'0 0.0
2017-Sep-16 03:58N 37°53' E 023°32'0 0.0
2017-Sep-16 03:28N 37°53' E 023°32'0 0.0
2017-Sep-16 02:55N 37°53' E 023°32'0 0.0
2017-Sep-16 02:28N 37°53' E 023°32'0 0.0
2017-Sep-16 01:58N 37°53' E 023°32'0 0.0
2017-Sep-16 01:28N 37°53' E 023°32'0 0.0
2017-Sep-16 00:58N 37°53' E 023°32'0 0.0
2017-Sep-16 00:28N 37°53' E 023°32'0 0.0
2017-Sep-15 23:58N 37°53' E 023°32'0 0.0
2017-Sep-15 23:28N 37°53' E 023°32'0 0.0
2017-Sep-15 22:58N 37°53' E 023°32'0 0.1
2017-Sep-15 22:28N 37°53' E 023°32'0 0.1
2017-Sep-15 21:58N 37°53' E 023°32'0 0.0
2017-Sep-15 21:25N 37°53' E 023°32'0 0.0
2017-Sep-15 20:58N 37°53' E 023°32'0 0.0
2017-Sep-15 20:28N 37°53' E 023°32'0 0.0
2017-Sep-15 19:58N 37°53' E 023°32'0 0.0
2017-Sep-15 19:28N 37°53' E 023°32'0 0.0
2017-Sep-15 18:52N 37°53' E 023°32'0 0.1
2017-Sep-15 18:28N 37°53' E 023°32'0 0.1
2017-Sep-15 17:58N 37°53' E 023°32'0 0.1
2017-Sep-15 17:28N 37°53' E 023°32'0 0.1
2017-Sep-15 16:58N 37°53' E 023°32'0 0.0
2017-Sep-15 16:25N 37°53' E 023°32'0 0.0
2017-Sep-15 15:58N 37°53' E 023°32'0 0.0
2017-Sep-15 15:28N 37°53' E 023°32'0 0.0
2017-Sep-15 14:58N 37°53' E 023°32'0 0.0
2017-Sep-15 14:28N 37°53' E 023°32'0 0.0
2017-Sep-15 13:58N 37°53' E 023°32'0 0.1
2017-Sep-15 13:28N 37°53' E 023°32'0 0.1
2017-Sep-15 12:58N 37°53' E 023°32'0 0.0
2017-Sep-15 12:28N 37°53' E 023°32'0 0.0
2017-Sep-15 11:58N 37°53' E 023°32'0 0.0
2017-Sep-15 11:25N 37°53' E 023°32'0 0.0
2017-Sep-15 10:58N 37°53' E 023°32'0 0.0
2017-Sep-15 10:28N 37°53' E 023°32'0 0.0
2017-Sep-15 09:58N 37°53' E 023°32'0 0.0
2017-Sep-15 09:25N 37°53' E 023°32'0 0.0
2017-Sep-15 08:58N 37°53' E 023°32'0 0.0
2017-Sep-15 08:28N 37°53' E 023°32'0 0.0
2017-Sep-15 07:58N 37°53' E 023°32'0 0.1
2017-Sep-15 07:28N 37°53' E 023°32'0 0.0
2017-Sep-15 06:58N 37°53' E 023°32'0 0.0
2017-Sep-15 06:28N 37°53' E 023°32'0 0.0
2017-Sep-15 05:58N 37°53' E 023°32'0 0.0
2017-Sep-15 05:28N 37°53' E 023°32'0 0.0
2017-Sep-15 04:55N 37°53' E 023°32'0 0.1
2017-Sep-15 04:28N 37°53' E 023°32'0 0.0
2017-Sep-15 03:58N 37°53' E 023°32'0 0.1
2017-Sep-15 03:28N 37°53' E 023°32'0 0.0
2017-Sep-15 02:58N 37°53' E 023°32'0 0.0
2017-Sep-15 02:28N 37°53' E 023°32'0 0.0
2017-Sep-15 01:58N 37°53' E 023°32'0 0.1
2017-Sep-15 01:28N 37°53' E 023°32'0 0.0
2017-Sep-15 00:58N 37°53' E 023°32'0 0.0
2017-Sep-15 00:28N 37°53' E 023°32'0 0.0
2017-Sep-14 23:58N 37°53' E 023°32'0 0.1
2017-Sep-14 23:28N 37°53' E 023°32'0 0.0
2017-Sep-14 22:58N 37°53' E 023°32'0 0.0
2017-Sep-14 22:28N 37°53' E 023°32'0 0.0
2017-Sep-14 21:58N 37°53' E 023°32'0 0.0
2017-Sep-14 21:28N 37°53' E 023°32'0 0.0
2017-Sep-14 20:58N 37°53' E 023°32'0 0.0
2017-Sep-14 20:28N 37°53' E 023°32'0 0.1
2017-Sep-14 19:59N 37°53' E 023°32'4 8.1
2017-Sep-14 19:31N 37°52' E 023°37'713.6
2017-Sep-14 19:00N 37°46' E 023°42'714.3
2017-Sep-14 18:31N 37°40' E 023°46'713.9
2017-Sep-14 18:01N 37°37' E 023°54'170 5.0
2017-Sep-13 07:58N 39°59' E 025°55'145 8.3
2017-Sep-12 14:31N 40°56' E 028°51'0 5.7
2017-Sep-12 14:30N 40°56' E 028°51'510.0
2017-Sep-12 14:00N 40°56' E 028°57'713.3
2017-Sep-12 13:30N 40°51' E 029°02'714.3
2017-Sep-12 13:01N 40°47' E 029°10'713.6
2017-Sep-12 12:30N 40°45' E 029°19'510.3
2017-Sep-12 12:00N 40°45' E 029°26'  

Dump ship's entire track history